Time;durP1;ratioP1;P1;durP2;ratioP2;P2;SDS_P1;SDS_P2;PMS_P1;PMS_P2;Temp;Humidity;BMP_temperature;BMP_pressure;BME280_temperature;BME280_humidity;BME280_pressure;Samples;Min_cycle;Max_cycle;Signal;HPM_P1;HPM_P2
2023/01/27 00:00:11;;;;;;;13.75;7.28;;;5.40;1.00;;;;;;5095988;28;20485;-60
2023/01/27 00:02:37;;;;;;;21.60;7.43;;;;;;;;;;5082944;28;20489;-61
2023/01/27 00:05:04;;;;;;;14.98;7.55;;;;;;;;;;5075459;28;20043;-61
2023/01/27 00:07:30;;;;;;;16.15;7.32;;;;;;;;;;5100098;28;20042;-60
2023/01/27 00:09:55;;;;;;;10.38;5.40;;;5.80;1.00;;;;;;5076154;28;20033;-60
2023/01/27 00:15:08;;;;;;;13.50;4.65;;;;;;;;;;5099798;28;20043;-60
2023/01/27 00:17:34;;;;;;;11.90;5.80;;;5.60;1.00;;;;;;5097839;28;20039;-60
2023/01/27 00:19:59;;;;;;;9.98;5.63;;;5.50;1.00;;;;;;5098620;28;20489;-60
2023/01/27 00:25:09;;;;;;;11.27;4.60;;;;;;;;;;5081729;28;20065;-60
2023/01/27 00:27:36;;;;;;;9.25;4.82;;;;;;;;;;5094374;28;20048;-60
2023/01/27 00:30:05;;;;;;;11.63;4.75;;;;;;;;;;5099439;28;20127;-59
2023/01/27 00:35:15;;;;;;;;;;;5.80;1.00;;;;;;5086804;28;20409;-60
2023/01/27 00:37:44;;;;;;;12.75;4.97;;;;;;;;;;5091825;28;20003;-61
2023/01/27 00:40:11;;;;;;;12.90;4.70;;;5.60;1.00;;;;;;5102357;28;20035;-61
2023/01/27 00:42:37;;;;;;;11.27;4.63;;;5.50;1.00;;;;;;5077160;28;20040;-60
2023/01/27 00:47:48;;;;;;;14.00;4.88;;;;;;;;;;5085630;28;20057;-59
2023/01/27 00:50:15;;;;;;;10.75;5.15;;;;;;;;;;5086112;28;20123;-60
2023/01/27 00:52:41;;;;;;;12.25;4.60;;;;;;;;;;5072938;28;20052;-61
2023/01/27 00:55:09;;;;;;;11.77;4.88;;;;;;;;;;5090948;28;20389;-60
2023/01/27 00:57:35;;;;;;;13.15;5.80;;;;;;;;;;5100664;28;20043;-60
2023/01/27 01:00:01;;;;;;;12.52;4.57;;;;;;;;;;5091017;28;20032;-60
2023/01/27 01:02:27;;;;;;;9.15;4.07;;;;;;;;;;5082711;28;20184;-61
2023/01/27 01:04:53;;;;;;;10.43;5.28;;;;;;;;;;5084884;28;20552;-60
2023/01/27 01:07:19;;;;;;;11.68;4.32;;;;;;;;;;5097759;28;20136;-61
2023/01/27 01:09:45;;;;;;;11.18;4.50;;;;;;;;;;5092234;28;20123;-61
2023/01/27 01:12:11;;;;;;;10.48;4.25;;;5.10;1.00;;;;;;5094777;28;20192;-60
2023/01/27 01:14:37;;;;;;;12.60;4.75;;;;;;;;;;5100618;28;20115;-61
2023/01/27 01:17:03;;;;;;;12.05;4.10;;;;;;;;;;5089853;28;20402;-60
2023/01/27 01:19:29;;;;;;;9.48;3.75;;;4.60;1.00;;;;;;5088087;28;20122;-60
2023/01/27 01:21:56;;;;;;;9.10;4.35;;;;;;;;;;5070207;28;20452;-61
2023/01/27 01:24:22;;;;;;;9.13;4.03;;;;;;;;;;5098789;28;20041;-61
2023/01/27 01:26:48;;;;;;;11.25;3.72;;;;;;;;;;5096044;28;20036;-60
2023/01/27 01:29:14;;;;;;;11.63;4.03;;;;;;;;;;5097079;28;20051;-59
2023/01/27 01:31:40;;;;;;;11.45;3.83;;;;;;;;;;5091494;28;20054;-60
2023/01/27 01:34:06;;;;;;;11.90;4.13;;;;;;;;;;5078985;28;20481;-60
2023/01/27 01:36:32;;;;;;;10.00;4.22;;;;;;;;;;5090565;28;20539;-60
2023/01/27 01:38:58;;;;;;;12.25;4.28;;;;;;;;;;5100446;28;20139;-60
2023/01/27 01:41:24;;;;;;;8.73;3.80;;;;;;;;;;5097569;28;20118;-60
2023/01/27 01:43:51;;;;;;;10.88;3.95;;;;;;;;;;5096970;28;20032;-61
2023/01/27 01:46:18;;;;;;;11.60;4.05;;;4.70;1.00;;;;;;5092723;28;20406;-60
2023/01/27 01:48:45;;;;;;;9.55;4.07;;;4.70;1.00;;;;;;5085796;28;20092;-60
2023/01/27 01:51:17;;;;;;;11.40;4.03;;;;;;;;;;5086737;28;20505;-59
2023/01/27 01:53:55;;;;;;;14.15;4.05;;;;;;;;;;5085229;28;20442;-60
2023/01/27 01:56:25;;;;;;;9.70;4.10;;;4.10;1.00;;;;;;5088503;28;20044;-61
2023/01/27 01:58:53;;;;;;;9.55;4.35;;;;;;;;;;5098101;28;20134;-61
2023/01/27 02:01:19;;;;;;;14.05;4.72;;;;;;;;;;5100069;28;20548;-61
2023/01/27 02:03:51;;;;;;;12.00;5.05;;;4.10;1.00;;;;;;5080453;28;20035;-61
2023/01/27 02:06:17;;;;;;;12.15;4.32;;;;;;;;;;5100028;28;20081;-61
2023/01/27 02:08:45;;;;;;;12.98;4.32;;;4.60;1.00;;;;;;5096329;28;20063;-60
2023/01/27 02:11:11;;;;;;;13.27;4.75;;;;;;;;;;5096148;28;20256;-60
2023/01/27 02:13:38;;;;;;;16.85;3.70;;;4.20;1.00;;;;;;5101411;28;20456;-61
2023/01/27 02:16:05;;;;;;;13.30;4.00;;;4.00;1.00;;;;;;5097861;28;20075;-60
2023/01/27 02:18:31;;;;;;;8.35;3.22;;;4.30;1.00;;;;;;5100020;28;20035;-61
2023/01/27 02:20:58;;;;;;;11.18;3.38;;;;;;;;;;5092078;28;20071;-60
2023/01/27 02:23:42;;;;;;;15.88;3.53;;;;;;;;;;5099171;28;20134;-60
2023/01/27 02:26:08;;;;;;;8.53;2.97;;;;;;;;;;5071206;28;20477;-60
2023/01/27 02:28:34;;;;;;;9.75;3.10;;;;;;;;;;5097843;28;20295;-60
2023/01/27 02:31:00;;;;;;;8.32;2.88;;;;;;;;;;5102054;28;20032;-60
2023/01/27 02:33:25;;;;;;;9.57;2.50;;;4.40;1.00;;;;;;5093299;28;20044;-60
2023/01/27 02:36:04;;;;;;;8.82;2.60;;;;;;;;;;5098690;28;20111;-60
2023/01/27 02:38:32;;;;;;;11.65;2.67;;;;;;;;;;5095387;28;20561;-60
2023/01/27 02:41:01;;;;;;;8.00;2.47;;;;;;;;;;5102983;28;20105;-60
2023/01/27 02:43:27;;;;;;;8.48;2.80;;;;;;;;;;5089807;28;20268;-60
2023/01/27 02:45:53;;;;;;;6.88;1.90;;;;;;;;;;5096087;28;20032;-61
2023/01/27 02:48:18;;;;;;;8.20;2.05;;;4.20;1.00;;;;;;5097467;28;20043;-60
2023/01/27 02:50:44;;;;;;;7.10;2.13;;;4.30;1.00;;;;;;5090956;28;20040;-60
2023/01/27 02:53:10;;;;;;;6.35;2.00;;;4.30;1.00;;;;;;5101275;28;20508;-60
2023/01/27 02:55:36;;;;;;;6.70;2.08;;;;;;;;;;5087214;28;20129;-59
2023/01/27 02:58:02;;;;;;;8.27;2.28;;;;;;;;;;5097038;28;20028;-61
2023/01/27 03:00:28;;;;;;;5.47;1.98;;;;;;;;;;5096986;28;20040;-60
2023/01/27 03:02:54;;;;;;;7.22;2.40;;;;;;;;;;5094052;28;20040;-60
2023/01/27 03:05:20;;;;;;;8.32;2.38;;;;;;;;;;5097496;28;20032;-60
2023/01/27 03:07:46;;;;;;;6.75;1.85;;;;;;;;;;5090391;28;20452;-61
2023/01/27 03:10:12;;;;;;;5.13;1.52;;;;;;;;;;5072056;28;20051;-61
2023/01/27 03:12:38;;;;;;;7.30;1.85;;;4.40;1.00;;;;;;5089542;28;20044;-60
2023/01/27 03:20:33;;;;;;;9.05;2.47;;;;;;;;;;5092019;28;20128;-60
2023/01/27 03:22:59;;;;;;;8.18;1.98;;;;;;;;;;5074505;28;20123;-60
2023/01/27 03:25:25;;;;;;;5.40;1.67;;;;;;;;;;5097349;28;20035;-60
2023/01/27 03:27:51;;;;;;;8.15;1.83;;;4.40;1.00;;;;;;5099503;28;20462;-60
2023/01/27 03:30:17;;;;;;;7.40;2.05;;;4.50;1.00;;;;;;5097006;28;20122;-61
2023/01/27 03:32:45;;;;;;;7.78;1.88;;;;;;;;;;5098960;28;20047;-60
2023/01/27 03:35:15;;;;;;;4.90;1.77;;;4.20;1.00;;;;;;5094824;28;20111;-61
2023/01/27 03:46:16;;;;;;;4.82;1.52;;;;;;;;;;5073159;28;20044;-60
2023/01/27 03:48:42;;;;;;;7.28;1.90;;;4.50;1.00;;;;;;5090752;28;20044;-61
2023/01/27 03:51:08;;;;;;;4.97;1.90;;;;;;;;;;5094080;28;20043;-60
2023/01/27 03:53:35;;;;;;;8.13;1.80;;;;;;;;;;5101805;28;20031;-60
2023/01/27 03:56:01;;;;;;;6.47;1.80;;;;;;;;;;5083048;28;20506;-61
2023/01/27 03:58:29;;;;;;;5.32;1.70;;;4.10;1.00;;;;;;5093774;28;20058;-61
2023/01/27 04:00:59;;;;;;;4.97;1.67;;;4.10;1.00;;;;;;5085352;28;20055;-61
2023/01/27 04:08:58;;;;;;;6.93;2.30;;;;;;;;;;5064826;28;20043;-60
2023/01/27 04:14:09;;;;;;;5.63;1.63;;;3.30;1.00;;;;;;5094848;28;20132;-61
2023/01/27 04:16:38;;;;;;;7.38;1.90;;;3.70;1.00;;;;;;5097949;28;20044;-61
2023/01/27 04:19:05;;;;;;;4.28;1.60;;;3.30;1.00;;;;;;5088690;28;20464;-61
2023/01/27 04:21:32;;;;;;;5.50;1.67;;;;;;;;;;5097936;28;20485;-59
2023/01/27 04:23:58;;;;;;;7.03;2.20;;;;;;;;;;5088515;28;20247;-60
2023/01/27 04:26:24;;;;;;;5.90;1.90;;;;;;;;;;5093537;28;20496;-59
2023/01/27 04:28:51;;;;;;;6.35;2.05;;;;;;;;;;5100112;28;20051;-60
2023/01/27 04:31:17;;;;;;;6.45;2.03;;;3.20;1.00;;;;;;5091528;28;20386;-60
2023/01/27 04:33:44;;;;;;;5.18;1.90;;;;;;;;;;5098816;28;20043;-60
2023/01/27 04:36:11;;;;;;;6.55;1.85;;;3.10;1.00;;;;;;5094520;28;20445;-60
2023/01/27 04:38:37;;;;;;;5.40;2.15;;;;;;;;;;5092111;28;20044;-60
2023/01/27 04:41:03;;;;;;;5.43;2.00;;;;;;;;;;5093783;28;20123;-60
2023/01/27 04:43:30;;;;;;;6.47;2.20;;;;;;;;;;5077231;28;20040;-60
2023/01/27 04:45:56;;;;;;;7.03;2.10;;;;;;;;;;5084778;28;20177;-60
2023/01/27 04:48:22;;;;;;;6.13;2.17;;;;;;;;;;5094496;28;20085;-59
2023/01/27 04:50:48;;;;;;;6.93;2.35;;;;;;;;;;5090602;28;20113;-60
2023/01/27 04:53:14;;;;;;;7.45;2.50;;;;;;;;;;5075750;28;20505;-60
2023/01/27 04:55:41;;;;;;;10.88;2.20;;;;;;;;;;5077540;28;20101;-59
2023/01/27 04:58:07;;;;;;;6.60;2.58;;;;;;;;;;5096923;28;20032;-60
2023/01/27 05:00:33;;;;;;;7.25;2.35;;;;;;;;;;5094385;28;20051;-59
2023/01/27 05:02:59;;;;;;;7.45;2.70;;;;;;;;;;5096156;28;20036;-60
2023/01/27 05:05:24;;;;;;;7.72;2.55;;;3.30;1.00;;;;;;5094843;28;20093;-60
2023/01/27 05:07:50;;;;;;;9.50;2.63;;;;;;;;;;5087456;28;20036;-59
2023/01/27 05:10:16;;;;;;;8.45;2.80;;;2.90;1.00;;;;;;5101816;28;20039;-59
2023/01/27 05:12:42;;;;;;;6.97;2.65;;;;;;;;;;5075022;28;20044;-60
2023/01/27 05:15:08;;;;;;;9.48;2.45;;;;;;;;;;5097920;28;20039;-60
2023/01/27 05:17:34;;;;;;;7.90;2.30;;;;;;;;;;5075131;28;20067;-60
2023/01/27 05:20:00;;;;;;;7.80;2.70;;;;;;;;;;5096101;28;20040;-60
2023/01/27 05:22:26;;;;;;;8.68;2.70;;;;;;;;;;5092664;28;20036;-60
2023/01/27 05:24:52;;;;;;;8.05;2.88;;;;;;;;;;5085770;28;20028;-60
2023/01/27 05:27:18;;;;;;;7.05;2.63;;;2.90;1.00;;;;;;5084049;28;20047;-60
2023/01/27 05:29:44;;;;;;;7.90;3.10;;;;;;;;;;5087346;28;20040;-59
2023/01/27 05:32:09;;;;;;;7.50;3.10;;;2.80;1.00;;;;;;5090570;28;20393;-59
2023/01/27 05:34:35;;;;;;;12.80;3.45;;;;;;;;;;5094056;28;20036;-60
2023/01/27 05:37:01;;;;;;;8.48;3.00;;;;;;;;;;5093388;28;20101;-60
2023/01/27 05:39:27;;;;;;;8.45;3.70;;;;;;;;;;5093470;28;20304;-59
2023/01/27 05:41:53;;;;;;;8.73;3.53;;;;;;;;;;5093717;28;20044;-60
2023/01/27 05:44:19;;;;;;;9.75;3.50;;;;;;;;;;5083964;28;20527;-58
2023/01/27 05:46:45;;;;;;;9.05;3.63;;;;;;;;;;5085617;28;20051;-59
2023/01/27 05:49:11;;;;;;;5.75;2.97;;;2.70;1.00;;;;;;5087307;28;20568;-59
2023/01/27 05:51:41;;;;;;;8.30;3.20;;;2.90;1.00;;;;;;5086518;28;20127;-60
2023/01/27 05:54:08;;;;;;;6.90;3.20;;;2.90;1.00;;;;;;5079373;28;20102;-59
2023/01/27 05:56:34;;;;;;;7.70;2.83;;;;;;;;;;5075951;28;20127;-58
2023/01/27 05:58:59;;;;;;;7.28;3.17;;;2.90;1.00;;;;;;5075214;28;20074;-60
2023/01/27 06:01:27;;;;;;;6.10;2.58;;;;;;;;;;5079807;28;20096;-60
2023/01/27 06:03:53;;;;;;;9.30;3.15;;;;;;;;;;5079566;28;20205;-60
2023/01/27 06:06:21;;;;;;;6.40;2.35;;;3.10;1.00;;;;;;5074542;28;20548;-59
2023/01/27 06:08:47;;;;;;;8.63;2.42;;;;;;;;;;5085192;28;20116;-59
2023/01/27 06:11:14;;;;;;;5.82;2.10;;;;;;;;;;5088401;28;20044;-60
2023/01/27 06:13:40;;;;;;;5.13;1.95;;;;;;;;;;5061145;28;20546;-60
2023/01/27 06:16:07;;;;;;;5.88;1.95;;;;;;;;;;5079859;28;20044;-60
2023/01/27 06:18:34;;;;;;;4.68;1.90;;;3.40;1.00;;;;;;5088242;28;20119;-60
2023/01/27 06:21:01;;;;;;;9.73;2.20;;;;;;;;;;5092530;28;20039;-60
2023/01/27 06:23:27;;;;;;;7.47;1.70;;;;;;;;;;5092942;28;20295;-60
2023/01/27 06:25:54;;;;;;;7.65;2.13;;;;;;;;;;5092831;28;20118;-60
2023/01/27 06:28:20;;;;;;;8.80;2.40;;;3.60;1.00;;;;;;5074090;28;20055;-60
2023/01/27 06:30:46;;;;;;;8.15;2.40;;;;;;;;;;5072846;28;20051;-60
2023/01/27 06:33:12;;;;;;;6.43;1.90;;;3.60;1.00;;;;;;5093015;28;20047;-60
2023/01/27 06:35:39;;;;;;;7.03;1.92;;;;;;;;;;5092468;28;20040;-60
2023/01/27 06:38:07;;;;;;;8.13;2.55;;;;;;;;;;5091899;28;20036;-60
2023/01/27 06:40:33;;;;;;;4.07;1.40;;;;;;;;;;5072034;28;20050;-60
2023/01/27 06:42:59;;;;;;;4.70;1.50;;;;;;;;;;5088663;28;20038;-61
2023/01/27 06:45:25;;;;;;;5.68;1.67;;;;;;;;;;5096655;28;20050;-61
2023/01/27 06:47:56;;;;;;;7.72;1.52;;;4.10;1.00;;;;;;5098952;28;20028;-60
2023/01/27 06:50:22;;;;;;;6.55;1.65;;;;;;;;;;5090869;28;20405;-59
2023/01/27 06:52:48;;;;;;;5.20;1.45;;;;;;;;;;5088719;28;20069;-58
2023/01/27 06:55:15;;;;;;;5.57;1.60;;;;;;;;;;5092373;28;20546;-60
2023/01/27 06:57:41;;;;;;;8.90;1.80;;;3.80;1.00;;;;;;5086413;28;20040;-60
2023/01/27 07:00:08;;;;;;;4.95;1.60;;;;;;;;;;5085885;28;20046;-61
2023/01/27 07:02:34;;;;;;;12.95;2.53;;;;;;;;;;5082512;28;20570;-60
2023/01/27 07:05:00;;;;;;;7.10;2.10;;;;;;;;;;5079996;28;20040;-60
2023/01/27 07:07:26;;;;;;;4.15;1.45;;;;;;;;;;5082543;28;20189;-59
2023/01/27 07:09:52;;;;;;;4.80;1.60;;;;;;;;;;5078838;28;20520;-60
2023/01/27 07:12:17;;;;;;;6.25;2.80;;;4.00;1.00;;;;;;5085724;28;20071;-60
2023/01/27 07:14:43;;;;;;;4.65;1.67;;;3.90;1.00;;;;;;5083127;28;20476;-60
2023/01/27 07:17:09;;;;;;;4.85;1.60;;;;;;;;;;5084873;28;20081;-60
2023/01/27 07:19:35;;;;;;;11.45;1.80;;;;;;;;;;5083096;28;20028;-59
2023/01/27 07:22:01;;;;;;;5.30;2.00;;;;;;;;;;5082181;28;20036;-60
2023/01/27 07:24:27;;;;;;;4.93;1.50;;;;;;;;;;5084002;28;20031;-61
2023/01/27 07:26:53;;;;;;;6.40;1.70;;;;;;;;;;5084906;28;20028;-59
2023/01/27 07:29:19;;;;;;;6.35;1.85;;;;;;;;;;5081729;28;20554;-60
2023/01/27 07:31:45;;;;;;;5.30;1.58;;;;;;;;;;5080855;28;20481;-61
2023/01/27 07:34:11;;;;;;;6.50;1.70;;;4.10;1.00;;;;;;5090019;28;20032;-60
2023/01/27 07:36:36;;;;;;;7.30;1.70;;;4.10;1.00;;;;;;5090114;28;20503;-60
2023/01/27 07:39:02;;;;;;;9.82;2.50;;;4.10;1.00;;;;;;5091117;28;20074;-60
2023/01/27 07:41:28;;;;;;;7.05;1.80;;;;;;;;;;5091152;28;20496;-60
2023/01/27 07:43:54;;;;;;;4.22;1.40;;;;;;;;;;5091474;28;20046;-60
2023/01/27 07:46:20;;;;;;;4.97;1.60;;;4.10;1.00;;;;;;5082760;28;20054;-61
2023/01/27 07:48:46;;;;;;;3.53;1.40;;;;;;;;;;5092902;28;20111;-60
2023/01/27 07:51:12;;;;;;;4.93;1.67;;;;;;;;;;5094572;28;20035;-60
2023/01/27 07:53:39;;;;;;;5.15;1.50;;;;;;;;;;5101109;28;20045;-60
2023/01/27 07:56:10;;;;;;;7.97;1.83;;;;;;;;;;5094689;28;20400;-60
2023/01/27 07:58:41;;;;;;;6.10;1.70;;;4.20;1.00;;;;;;5068681;28;20044;-60
2023/01/27 08:01:08;;;;;;;6.15;1.88;;;;;;;;;;5083323;28;20037;-60
2023/01/27 08:03:34;;;;;;;4.97;1.63;;;;;;;;;;5078806;28;20284;-60
2023/01/27 08:06:04;;;;;;;6.15;1.67;;;;;;;;;;5084321;28;20412;-60
2023/01/27 08:08:30;;;;;;;5.95;1.50;;;;;;;;;;5082036;28;20143;-59
2023/01/27 08:10:59;;;;;;;7.03;1.80;;;;;;;;;;5082576;28;20039;-60
2023/01/27 08:13:25;;;;;;;6.45;1.60;;;;;;;;;;5085944;28;20044;-61
2023/01/27 08:15:57;;;;;;;5.65;1.85;;;;;;;;;;5073597;28;20032;-61
2023/01/27 08:18:24;;;;;;;5.57;1.63;;;4.40;1.00;;;;;;5076584;28;20044;-61
2023/01/27 08:20:51;;;;;;;5.00;1.50;;;;;;;;;;5065726;28;20044;-60
2023/01/27 08:23:18;;;;;;;4.75;1.50;;;;;;;;;;5068800;28;20040;-60
2023/01/27 08:25:51;;;;;;;5.00;1.42;;;4.40;1.00;;;;;;5070040;28;20229;-61
2023/01/27 08:28:18;;;;;;;5.63;1.50;;;;;;;;;;5089401;28;20067;-60
2023/01/27 08:30:44;;;;;;;4.57;1.40;;;;;;;;;;5070044;28;20063;-59
2023/01/27 08:33:10;;;;;;;5.50;2.00;;;;;;;;;;5088442;28;20040;-60
2023/01/27 08:35:37;;;;;;;4.30;1.30;;;;;;;;;;5088268;28;20419;-61
2023/01/27 08:38:04;;;;;;;3.75;1.60;;;;;;;;;;5086860;28;20573;-59
2023/01/27 08:40:30;;;;;;;5.90;1.20;;;;;;;;;;5087689;28;20181;-60
2023/01/27 08:42:56;;;;;;;2.58;1.08;;;;;;;;;;5090334;28;20036;-60
2023/01/27 08:45:22;;;;;;;4.13;1.10;;;;;;;;;;5093882;28;20046;-61
2023/01/27 08:47:49;;;;;;;3.15;1.20;;;;;;;;;;5096734;28;20405;-60
2023/01/27 08:50:15;;;;;;;3.33;1.10;;;;;;;;;;5087915;28;20396;-60
2023/01/27 08:52:41;;;;;;;2.90;1.40;;;;;;;;;;5097171;28;20472;-61
2023/01/27 08:55:07;;;;;;;5.22;1.30;;;;;;;;;;5099206;28;20036;-61
2023/01/27 08:57:33;;;;;;;4.97;1.65;;;;;;;;;;5094247;28;20489;-61
2023/01/27 08:59:59;;;;;;;3.38;1.10;;;;;;;;;;5098595;28;20070;-60
2023/01/27 09:02:25;;;;;;;5.68;1.20;;;4.70;1.00;;;;;;5075662;28;20047;-61
2023/01/27 09:04:52;;;;;;;6.05;1.50;;;;;;;;;;5096428;28;20038;-61
2023/01/27 09:07:18;;;;;;;4.20;1.42;;;;;;;;;;5092750;28;20086;-61
2023/01/27 09:09:47;;;;;;;5.35;1.65;;;5.30;1.00;;;;;;5097158;28;20420;-60
2023/01/27 09:12:13;;;;;;;5.65;1.33;;;;;;;;;;5079342;28;20259;-61
2023/01/27 09:14:39;;;;;;;4.53;1.38;;;4.80;1.00;;;;;;5094005;28;20075;-61
2023/01/27 09:17:05;;;;;;;5.07;1.63;;;4.80;1.00;;;;;;5079461;28;20060;-60
2023/01/27 09:19:31;;;;;;;5.00;1.33;;;;;;;;;;5093568;28;20048;-60
2023/01/27 09:21:57;;;;;;;3.25;1.00;;;;;;;;;;5095062;28;20185;-59
2023/01/27 09:24:23;;;;;;;6.40;1.50;;;;;;;;;;5092887;28;20115;-61
2023/01/27 09:26:49;;;;;;;3.63;1.20;;;;;;;;;;5094701;28;20086;-60
2023/01/27 09:29:15;;;;;;;3.85;1.60;;;;;;;;;;5097241;28;20040;-60
2023/01/27 09:31:41;;;;;;;4.50;1.23;;;;;;;;;;5093224;28;20097;-60
2023/01/27 09:34:07;;;;;;;5.57;1.40;;;;;;;;;;5085902;28;20050;-61
2023/01/27 09:36:41;;;;;;;4.72;1.30;;;4.50;1.00;;;;;;5089220;28;20043;-60
2023/01/27 09:39:07;;;;;;;5.57;1.10;;;;;;;;;;5082699;28;20036;-61
2023/01/27 09:41:33;;;;;;;3.53;1.30;;;;;;;;;;5076406;28;20040;-60
2023/01/27 09:44:22;;;;;;;3.95;1.17;;;;;;;;;;5058284;28;20032;-61
2023/01/27 09:46:48;;;;;;;7.28;1.52;;;;;;;;;;5079748;28;20236;-59
2023/01/27 09:49:15;;;;;;;4.50;1.48;;;;;;;;;;5081223;28;20040;-61
2023/01/27 09:51:47;;;;;;;3.25;1.13;;;;;;;;;;5076056;28;20040;-60
2023/01/27 09:54:24;;;;;;;3.60;1.20;;;;;;;;;;5070625;28;20043;-61
2023/01/27 09:56:50;;;;;;;4.25;1.85;;;;;;;;;;5071604;28;20497;-60
2023/01/27 09:59:46;;;;;;;5.38;1.23;;;5.30;1.00;;;;;;5088844;28;20043;-59
2023/01/27 10:02:12;;;;;;;5.13;1.20;;;;;;;;;;5081002;28;20092;-61
2023/01/27 10:04:54;;;;;;;4.50;1.25;;;;;;;;;;5089492;28;20107;-61
2023/01/27 10:07:48;;;;;;;5.78;1.40;;;5.80;1.00;;;;;;5089252;28;20046;-61
2023/01/27 10:10:29;;;;;;;5.85;1.27;;;;;;;;;;5075441;28;20498;-60
2023/01/27 10:13:14;;;;;;;3.47;1.00;;;5.00;1.00;;;;;;5083722;28;20071;-61
2023/01/27 10:15:48;;;;;;;3.33;1.15;;;;;;;;;;5089336;28;20032;-61
2023/01/27 10:18:14;;;;;;;3.43;1.10;;;5.50;1.00;;;;;;5091170;28;20097;-60
2023/01/27 10:20:40;;;;;;;2.92;1.02;;;;;;;;;;5092794;28;20447;-61
2023/01/27 10:23:17;;;;;;;3.25;0.90;;;5.70;1.00;;;;;;5092756;28;20438;-61
2023/01/27 10:25:46;;;;;;;3.55;0.82;;;;;;;;;;5087145;28;20068;-61
2023/01/27 10:28:23;;;;;;;5.45;1.10;;;5.70;1.00;;;;;;5074357;28;20109;-60
2023/01/27 10:31:01;;;;;;;4.40;1.13;;;;;;;;;;5092649;28;20089;-60
2023/01/27 10:33:35;;;;;;;5.05;1.30;;;;;;;;;;5092608;28;20386;-61
2023/01/27 10:36:17;;;;;;;6.95;1.40;;;;;;;;;;5092784;28;20481;-60
2023/01/27 10:38:46;;;;;;;3.22;0.95;;;;;;;;;;5091877;28;20043;-60
2023/01/27 10:41:15;;;;;;;5.60;1.10;;;;;;;;;;5092860;28;20044;-60
2023/01/27 10:43:47;;;;;;;2.15;0.80;;;;;;;;;;5092586;28;20600;-61
2023/01/27 10:46:26;;;;;;;6.38;1.00;;;6.80;1.00;;;;;;5100875;28;20039;-61
2023/01/27 10:49:01;;;;;;;6.53;1.10;;;;;;;;;;5092461;28;20403;-61
2023/01/27 10:51:49;;;;;;;3.05;0.98;;;6.40;1.00;;;;;;5100854;28;20040;-61
2023/01/27 10:54:23;;;;;;;3.53;1.10;;;7.00;1.00;;;;;;5100802;28;20079;-61
2023/01/27 10:56:56;;;;;;;4.38;1.27;;;;;;;;;;5097543;28;20040;-61
2023/01/27 10:59:27;;;;;;;6.32;1.30;;;;;;;;;;5099705;28;20089;-61
2023/01/27 11:01:59;;;;;;;4.97;1.48;;;6.50;1.00;;;;;;5083818;28;20040;-61
2023/01/27 11:04:45;;;;;;;4.60;1.15;;;6.10;1.00;;;;;;5098701;28;20045;-61
2023/01/27 11:07:21;;;;;;;5.07;1.30;;;;;;;;;;5094642;28;20488;-61
2023/01/27 11:10:14;;;;;;;4.13;1.35;;;6.10;1.00;;;;;;5099807;28;20054;-60
2023/01/27 11:12:44;;;;;;;5.22;1.35;;;5.70;1.00;;;;;;5095986;28;20040;-61
2023/01/27 11:15:24;;;;;;;5.20;1.38;;;6.00;1.00;;;;;;5082933;28;20062;-61
2023/01/27 11:17:52;;;;;;;4.50;1.63;;;;;;;;;;5090073;28;20497;-60
2023/01/27 11:20:34;;;;;;;5.22;1.40;;;;;;;;;;5099901;28;20044;-61
2023/01/27 11:23:09;;;;;;;5.07;1.65;;;;;;;;;;5092555;28;20032;-60
2023/01/27 11:26:08;;;;;;;4.97;1.50;;;5.70;1.00;;;;;;5083235;28;20043;-61
2023/01/27 11:28:58;;;;;;;5.10;1.48;;;7.00;1.00;;;;;;5100340;28;20054;-60
2023/01/27 11:31:34;;;;;;;3.65;1.20;;;;;;;;;;5095873;28;20043;-61
2023/01/27 11:34:12;;;;;;;6.10;1.25;;;6.00;1.00;;;;;;5098635;28;20509;-61
2023/01/27 11:36:38;;;;;;;3.88;0.90;;;;;;;;;;5095372;28;20050;-61
2023/01/27 11:39:05;;;;;;;3.45;0.98;;;;;;;;;;5097452;28;20111;-61
2023/01/27 11:41:37;;;;;;;3.08;1.10;;;;;;;;;;5082687;28;20041;-61
2023/01/27 11:44:06;;;;;;;4.00;1.08;;;;;;;;;;5084869;28;20478;-61
2023/01/27 11:46:33;;;;;;;4.47;1.20;;;;;;;;;;5072452;28;20412;-60
2023/01/27 11:49:00;;;;;;;3.85;1.15;;;;;;;;;;5084355;28;20473;-60
2023/01/27 11:51:27;;;;;;;3.42;1.00;;;;;;;;;;5082366;28;20036;-60
2023/01/27 11:54:17;;;;;;;4.60;1.10;;;7.10;1.00;;;;;;5081726;28;20090;-61
2023/01/27 11:56:45;;;;;;;2.60;1.20;;;;;;;;;;5076807;28;20405;-61
2023/01/27 11:59:26;;;;;;;2.95;0.93;;;7.20;1.00;;;;;;5078746;28;20039;-61
2023/01/27 12:02:07;;;;;;;4.68;1.23;;;;;;;;;;5077963;28;20043;-61
2023/01/27 12:04:47;;;;;;;9.27;1.60;;;;;;;;;;5081168;28;20028;-61
2023/01/27 12:07:22;;;;;;;3.03;1.10;;;;;;;;;;5080492;28;20039;-61
2023/01/27 12:09:48;;;;;;;4.78;1.05;;;;;;;;;;5082193;28;20059;-61
2023/01/27 12:12:14;;;;;;;3.60;1.00;;;6.90;1.00;;;;;;5085272;28;20048;-61
2023/01/27 12:14:54;;;;;;;6.97;2.08;;;7.00;1.00;;;;;;5090796;28;20047;-61
2023/01/27 12:17:32;;;;;;;2.38;0.90;;;7.00;1.00;;;;;;5090413;28;20523;-61
2023/01/27 12:20:06;;;;;;;2.42;0.98;;;;;;;;;;5086894;28;20397;-61
2023/01/27 12:22:33;;;;;;;2.40;0.80;;;;;;;;;;5090843;28;20040;-61
2023/01/27 12:25:03;;;;;;;2.83;1.23;;;;;;;;;;5090823;28;20039;-61
2023/01/27 12:27:36;;;;;;;3.17;0.90;;;6.80;1.00;;;;;;5090181;28;20067;-61
2023/01/27 12:30:05;;;;;;;2.95;0.93;;;;;;;;;;5090323;28;20402;-60
2023/01/27 12:32:38;;;;;;;5.10;1.35;;;6.50;1.00;;;;;;5090815;28;20050;-61
2023/01/27 12:35:05;;;;;;;3.42;1.33;;;;;;;;;;5085062;28;20035;-60
2023/01/27 12:37:33;;;;;;;3.67;1.00;;;;;;;;;;5089998;28;20501;-59
2023/01/27 12:40:02;;;;;;;3.30;1.00;;;6.90;1.00;;;;;;5071475;28;20481;-61
2023/01/27 12:42:36;;;;;;;3.03;1.10;;;;;;;;;;5090406;28;20036;-61
2023/01/27 12:45:17;;;;;;;2.57;1.00;;;;;;;;;;5094271;28;20373;-61
2023/01/27 12:47:54;;;;;;;2.67;0.93;;;;;;;;;;5096791;28;20054;-60
2023/01/27 12:50:22;;;;;;;2.80;0.98;;;;;;;;;;5093115;28;20595;-60
2023/01/27 12:53:04;;;;;;;3.70;1.10;;;6.20;1.00;;;;;;5098696;28;20456;-60
2023/01/27 12:55:33;;;;;;;3.83;1.02;;;6.20;1.00;;;;;;5095464;28;20438;-60
2023/01/27 12:58:00;;;;;;;3.78;1.00;;;6.40;1.00;;;;;;5094963;28;20032;-61
2023/01/27 13:00:28;;;;;;;3.13;1.08;;;;;;;;;;5095233;28;20071;-59
2023/01/27 13:02:59;;;;;;;3.42;1.17;;;;;;;;;;5095689;28;20050;-60
2023/01/27 13:05:25;;;;;;;4.82;1.45;;;;;;;;;;5087631;28;20059;-59
2023/01/27 13:07:52;;;;;;;4.22;1.10;;;;;;;;;;5089364;28;20032;-61
2023/01/27 13:10:22;;;;;;;3.88;1.30;;;6.60;1.00;;;;;;5090252;28;20097;-60
2023/01/27 13:12:48;;;;;;;4.40;1.50;;;;;;;;;;5088350;28;20043;-60
2023/01/27 13:15:18;;;;;;;4.38;1.30;;;6.00;1.00;;;;;;5090312;28;20040;-61
2023/01/27 13:17:47;;;;;;;4.28;1.30;;;;;;;;;;5089987;28;20032;-60
2023/01/27 13:20:21;;;;;;;3.25;1.10;;;6.00;1.00;;;;;;5071388;28;20051;-60
2023/01/27 13:22:53;;;;;;;3.58;0.90;;;6.40;1.00;;;;;;5072232;28;20089;-60
2023/01/27 13:25:34;;;;;;;2.95;0.90;;;;;;;;;;5088451;28;20062;-60
2023/01/27 13:28:01;;;;;;;2.00;0.80;;;;;;;;;;5071590;28;20047;-61
2023/01/27 13:30:33;;;;;;;2.42;0.82;;;5.90;1.00;;;;;;5071561;28;20248;-61
2023/01/27 13:33:19;;;;;;;2.08;0.85;;;;;;;;;;5083382;28;20111;-60
2023/01/27 13:36:06;;;;;;;3.25;0.95;;;;;;;;;;5080784;28;20032;-61
2023/01/27 13:38:45;;;;;;;2.58;0.82;;;;;;;;;;5071110;28;20147;-61
2023/01/27 13:41:14;;;;;;;2.58;0.80;;;;;;;;;;5090223;28;20876;-60
2023/01/27 13:43:44;;;;;;;2.88;0.93;;;;;;;;;;5089711;28;20412;-60
2023/01/27 13:46:15;;;;;;;2.60;0.90;;;;;;;;;;5097822;28;20043;-60
2023/01/27 13:48:53;;;;;;;4.22;1.00;;;;;;;;;;5091199;28;20062;-60
2023/01/27 13:51:21;;;;;;;2.20;0.88;;;;;;;;;;5094747;28;20044;-60
2023/01/27 13:53:48;;;;;;;5.40;1.20;;;;;;;;;;5102649;28;20112;-60
2023/01/27 13:56:38;;;;;;;1.85;0.80;;;6.10;1.00;;;;;;5098700;28;20055;-59
2023/01/27 13:59:23;;;;;;;2.65;1.02;;;;;;;;;;5100611;28;20093;-60
2023/01/27 14:02:20;;;;;;;4.32;1.27;;;6.30;1.00;;;;;;5083594;28;20034;-60
2023/01/27 14:05:02;;;;;;;5.22;1.20;;;;;;;;;;5050103;28;20040;-60
2023/01/27 14:07:47;;;;;;;3.15;1.20;;;6.10;1.00;;;;;;5096031;28;20039;-58
2023/01/27 14:10:21;;;;;;;3.70;1.20;;;;;;;;;;5103927;28;20046;-60
2023/01/27 14:13:07;;;;;;;3.83;1.00;;;5.50;1.00;;;;;;5096462;28;20052;-60
2023/01/27 14:15:40;;;;;;;2.40;1.20;;;;;;;;;;5087183;28;20439;-59
2023/01/27 14:18:15;;;;;;;2.53;0.90;;;5.30;1.00;;;;;;5094332;28;20043;-60
2023/01/27 14:21:00;;;;;;;2.50;1.00;;;;;;;;;;5100433;28;20433;-60
2023/01/27 14:23:26;;;;;;;;;;;;;;;;;;5078389;28;20047;-60
2023/01/27 14:26:02;;;;;;;1.73;0.70;;;6.40;1.00;;;;;;5087015;28;19916;-60
2023/01/27 14:28:34;;;;;;;2.58;0.80;;;5.60;1.00;;;;;;5102361;28;20055;-60
2023/01/27 14:31:04;;;;;;;2.47;0.85;;;;;;;;;;5097403;28;20080;-59
2023/01/27 14:33:49;;;;;;;1.73;0.80;;;;;;;;;;5083195;28;20044;-60
2023/01/27 14:36:22;;;;;;;;;;;5.70;1.00;;;;;;5097224;28;20047;-60
2023/01/27 14:38:50;;;;;;;3.85;1.60;;;6.10;1.00;;;;;;5098872;28;19944;-60
2023/01/27 14:41:35;;;;;;;1.60;0.80;;;;;;;;;;5095435;28;20047;-60
2023/01/27 14:44:00;;;;;;;2.92;0.98;;;5.30;1.00;;;;;;5082444;28;20369;-61
2023/01/27 14:46:38;;;;;;;3.15;0.82;;;;;;;;;;5102288;28;20042;-60
2023/01/27 14:49:25;;;;;;;2.65;0.90;;;5.00;1.00;;;;;;5086057;28;20044;-59
2023/01/27 14:52:13;;;;;;;2.38;1.02;;;5.60;1.00;;;;;;5086431;28;20043;-60
2023/01/27 14:55:04;;;;;;;2.60;0.88;;;6.10;1.00;;;;;;5102597;28;20043;-60
2023/01/27 14:57:30;;;;;;;1.98;0.80;;;;;;;;;;5096612;28;20072;-60